Terminal Aerodrome Forecast
Issued by NWS

Home | Current Version | Previous Version | Text Only | Print | Product List | Glossary On
Versions: 1 2 3 4 5 6 7 8 9 10 11 12
000
FTUS43 KEAX 211128
TAFMKC
TAF
KMKC 211128Z 2112/2212 07009KT P6SM VCSH SCT090 OVC130
     FM211600 08013KT P6SM SCT080 OVC100
     FM220300 06007KT P6SM VCSH SCT030 OVC060=

USA.gov is the U.S. government's official web portal to all federal, state and local government web resources and services.